Terminal Aerodrome Forecast
Issued by NWS

Home | Current Version | Previous Version | Text Only | Print | Product List | Glossary On
Versions: 1 2 3 4 5 6 7 8 9 10 11 12 13 14 15 16 17 18 19 20 21 22 23 24 25 26 27 28 29 30 31 32 33 34 35 36 37 38 39 40 41 42 43
000
FTUS45 KBOU 141735
TAFAPA
TAF
KAPA 141735Z 1418/1518 25007KT P6SM FEW090 BKN200
     FM142100 32008KT P6SM SCT100 BKN220
     FM150100 VRB05KT P6SM SCT100 BKN200
     FM150300 21007KT P6SM FEW100 SCT140 BKN200
     FM150700 35012KT P6SM SCT020
     FM150900 02007KT P6SM SCT008 BKN012
      TEMPO 1512/1516 1SM -RA BR BKN008
     FM151700 05005KT P6SM SCT008 BKN020=

USA.gov is the U.S. government's official web portal to all federal, state and local government web resources and services.